Time;durP1;ratioP1;P1;durP2;ratioP2;P2;SDS_P1;SDS_P2;PMS_P1;PMS_P2;Temp;Humidity;BMP_temperature;BMP_pressure;BME280_temperature;BME280_humidity;BME280_pressure;Samples;Min_cycle;Max_cycle;Signal;HPM_P1;HPM_P2
2023/03/19 00:00:09;;;;;;;6.32;4.63;;;11.20;99.90;;;;;;5030366;28;20394;-65
2023/03/19 00:02:35;;;;;;;6.38;4.10;;;11.30;99.90;;;;;;5031022;28;20041;-65
2023/03/19 00:05:02;;;;;;;5.45;4.25;;;11.30;99.90;;;;;;5031487;28;20073;-65
2023/03/19 00:07:29;;;;;;;5.95;4.57;;;11.40;99.90;;;;;;5031425;28;20423;-65
2023/03/19 00:09:55;;;;;;;6.13;3.80;;;11.30;99.90;;;;;;5030789;28;20046;-64
2023/03/19 00:12:22;;;;;;;5.32;4.03;;;11.30;99.90;;;;;;5031070;28;20060;-65
2023/03/19 00:14:48;;;;;;;4.13;3.30;;;11.40;99.90;;;;;;5030530;28;20061;-64
2023/03/19 00:17:15;;;;;;;5.25;3.65;;;11.40;99.90;;;;;;5031131;28;20619;-64
2023/03/19 00:19:41;;;;;;;4.18;3.67;;;11.40;99.90;;;;;;5031222;28;20481;-64
2023/03/19 00:22:07;;;;;;;4.90;3.75;;;11.40;99.90;;;;;;5030293;28;20567;-64
2023/03/19 00:24:33;;;;;;;6.15;3.95;;;11.30;99.90;;;;;;5030829;28;20104;-64
2023/03/19 00:27:00;;;;;;;4.18;3.15;;;11.30;99.90;;;;;;5030967;28;20057;-65
2023/03/19 00:29:26;;;;;;;5.32;3.22;;;11.40;99.90;;;;;;5031302;28;20058;-65
2023/03/19 00:31:52;;;;;;;4.75;3.30;;;11.30;99.90;;;;;;5030539;28;20053;-65
2023/03/19 00:34:18;;;;;;;5.55;3.53;;;11.30;99.90;;;;;;5030853;28;20057;-64
2023/03/19 00:36:45;;;;;;;3.45;3.15;;;11.30;99.90;;;;;;5031151;28;20056;-65
2023/03/19 00:39:12;;;;;;;4.68;3.00;;;11.30;99.90;;;;;;5031085;28;20055;-65
2023/03/19 00:41:38;;;;;;;4.25;2.72;;;11.30;99.90;;;;;;5030251;28;20049;-65
2023/03/19 00:44:05;;;;;;;4.35;3.00;;;11.30;99.90;;;;;;5030575;28;20127;-64
2023/03/19 00:46:31;;;;;;;3.35;2.80;;;11.30;99.90;;;;;;5030481;28;20049;-64
2023/03/19 00:48:58;;;;;;;3.50;2.92;;;11.30;99.90;;;;;;5030963;28;20103;-65
2023/03/19 00:51:24;;;;;;;4.40;3.20;;;11.30;99.90;;;;;;5030584;28;20521;-64
2023/03/19 00:53:51;;;;;;;3.65;3.30;;;11.30;99.90;;;;;;5030609;28;20107;-64
2023/03/19 00:56:18;;;;;;;5.25;3.28;;;11.30;99.90;;;;;;5030480;28;20060;-65
2023/03/19 00:58:45;;;;;;;4.32;3.20;;;11.20;99.90;;;;;;5031103;28;20049;-65
2023/03/19 01:01:14;;;;;;;5.22;2.88;;;11.30;99.90;;;;;;5030767;28;20046;-64
2023/03/19 01:03:41;;;;;;;3.75;2.90;;;11.30;99.90;;;;;;5031072;28;20310;-65
2023/03/19 01:06:07;;;;;;;5.35;3.13;;;11.20;99.90;;;;;;5031532;28;20054;-64
2023/03/19 01:08:34;;;;;;;4.78;3.00;;;11.30;99.90;;;;;;5031982;28;20099;-64
2023/03/19 01:11:08;;;;;;;6.25;3.30;;;11.20;99.90;;;;;;5031997;28;20466;-64
2023/03/19 01:13:35;;;;;;;3.72;3.17;;;11.20;99.90;;;;;;5031943;28;20111;-64
2023/03/19 01:16:01;;;;;;;3.67;3.28;;;11.10;99.90;;;;;;5033261;28;20458;-64
2023/03/19 01:18:28;;;;;;;5.45;3.72;;;11.10;99.90;;;;;;5032202;28;20057;-64
2023/03/19 01:20:54;;;;;;;5.60;3.40;;;11.10;99.90;;;;;;5032076;28;20066;-64
2023/03/19 01:23:21;;;;;;;4.10;3.30;;;11.00;99.90;;;;;;5035289;28;20100;-64
2023/03/19 01:25:47;;;;;;;7.03;3.63;;;11.00;99.90;;;;;;5035827;28;20053;-63
2023/03/19 01:28:13;;;;;;;4.75;3.30;;;11.00;99.90;;;;;;5035394;28;20107;-64
2023/03/19 01:30:40;;;;;;;5.07;3.03;;;11.00;99.90;;;;;;5034771;28;20395;-64
2023/03/19 01:33:06;;;;;;;5.80;3.10;;;10.90;99.90;;;;;;5034907;28;20053;-64
2023/03/19 01:35:33;;;;;;;3.65;3.08;;;10.90;99.90;;;;;;5018340;28;20450;-64
2023/03/19 01:37:59;;;;;;;4.75;3.40;;;10.80;99.90;;;;;;5034275;28;20421;-65
2023/03/19 01:40:25;;;;;;;4.03;3.40;;;10.80;99.90;;;;;;5034456;28;20143;-64
2023/03/19 01:43:05;;;;;;;3.75;3.13;;;10.80;99.90;;;;;;5034573;28;20064;-65
2023/03/19 01:45:35;;;;;;;4.78;2.80;;;10.80;99.90;;;;;;5033883;28;20049;-65
2023/03/19 01:48:02;;;;;;;5.05;3.10;;;10.80;99.90;;;;;;5034309;28;20053;-65
2023/03/19 01:50:44;;;;;;;4.03;3.17;;;10.70;99.90;;;;;;5033919;28;20478;-65
2023/03/19 01:53:14;;;;;;;5.43;3.55;;;10.70;99.90;;;;;;5033916;28;20115;-65
2023/03/19 01:55:40;;;;;;;4.00;3.03;;;10.70;99.90;;;;;;5033460;28;20111;-65
2023/03/19 01:58:07;;;;;;;4.57;3.40;;;10.70;99.90;;;;;;5033522;28;20056;-65
2023/03/19 02:00:37;;;;;;;4.40;3.03;;;10.70;99.90;;;;;;5033196;28;20107;-66
2023/03/19 02:03:04;;;;;;;3.53;2.70;;;10.70;99.90;;;;;;5033254;28;20050;-65
2023/03/19 02:05:32;;;;;;;3.67;2.97;;;10.70;99.90;;;;;;5033341;28;20084;-65
2023/03/19 02:08:01;;;;;;;4.65;3.10;;;10.60;99.90;;;;;;5016969;28;20045;-65
2023/03/19 02:10:29;;;;;;;5.32;3.47;;;10.70;99.90;;;;;;5016969;28;20053;-65
2023/03/19 02:12:55;;;;;;;4.53;3.55;;;10.70;99.90;;;;;;5033438;28;20466;-65
2023/03/19 02:15:22;;;;;;;3.67;3.10;;;10.60;99.90;;;;;;5032536;28;20506;-65
2023/03/19 02:17:48;;;;;;;3.47;2.95;;;10.70;99.90;;;;;;5032987;28;20045;-65
2023/03/19 02:20:41;;;;;;;5.50;3.10;;;10.70;99.90;;;;;;5032790;28;20049;-65
2023/03/19 02:23:36;;;;;;;3.80;3.03;;;10.60;99.90;;;;;;5033367;28;20545;-65
2023/03/19 02:26:11;;;;;;;3.97;3.35;;;10.70;99.90;;;;;;5033139;28;20049;-65
2023/03/19 02:28:41;;;;;;;4.40;3.58;;;10.60;99.90;;;;;;5033329;28;20433;-65
2023/03/19 02:31:07;;;;;;;4.43;2.97;;;10.60;99.90;;;;;;5032682;28;20049;-65
2023/03/19 02:33:34;;;;;;;4.22;3.40;;;10.70;99.90;;;;;;5032614;28;20041;-65
2023/03/19 02:36:02;;;;;;;4.80;3.33;;;10.60;99.90;;;;;;5032811;28;20458;-65
2023/03/19 02:38:30;;;;;;;5.28;3.60;;;10.70;99.90;;;;;;5033562;28;20346;-65
2023/03/19 02:41:03;;;;;;;5.85;3.60;;;10.60;99.90;;;;;;5033169;28;20373;-65
2023/03/19 02:43:31;;;;;;;5.25;3.58;;;10.70;99.90;;;;;;5033064;28;20100;-65
2023/03/19 02:45:58;;;;;;;4.47;3.30;;;10.60;99.90;;;;;;5032856;28;20037;-65
2023/03/19 02:48:25;;;;;;;4.93;3.33;;;10.60;99.90;;;;;;5033402;28;20049;-65
2023/03/19 02:50:51;;;;;;;4.32;3.20;;;10.50;99.90;;;;;;5016473;28;20525;-65
2023/03/19 02:53:18;;;;;;;4.90;3.22;;;10.50;99.90;;;;;;5032248;28;20045;-65
2023/03/19 02:55:44;;;;;;;4.18;3.35;;;10.50;99.90;;;;;;5032233;28;20334;-65
2023/03/19 02:58:11;;;;;;;3.97;3.03;;;10.40;99.90;;;;;;5032710;28;20038;-65
2023/03/19 03:00:37;;;;;;;4.13;3.72;;;10.50;99.90;;;;;;5032303;28;20041;-65
2023/03/19 03:03:05;;;;;;;4.22;3.83;;;10.30;99.90;;;;;;5032736;28;20347;-65
2023/03/19 03:05:32;;;;;;;5.47;3.40;;;10.30;99.90;;;;;;5032948;28;20049;-65
2023/03/19 03:07:58;;;;;;;5.25;3.60;;;10.30;99.90;;;;;;5032668;28;20118;-65
2023/03/19 03:10:25;;;;;;;4.47;3.08;;;10.40;99.90;;;;;;5032404;28;20056;-65
2023/03/19 03:12:51;;;;;;;4.13;3.20;;;10.40;99.90;;;;;;5016159;28;20099;-65
2023/03/19 03:15:18;;;;;;;4.60;3.10;;;10.30;99.90;;;;;;5031668;28;20049;-65
2023/03/19 03:17:44;;;;;;;4.13;3.60;;;10.30;99.90;;;;;;5032200;28;20041;-65
2023/03/19 03:20:12;;;;;;;4.53;2.92;;;10.30;99.90;;;;;;5016022;28;20049;-65
2023/03/19 03:22:39;;;;;;;5.05;3.20;;;10.40;99.90;;;;;;5032218;28;20049;-66
2023/03/19 03:25:06;;;;;;;4.05;3.08;;;10.40;99.90;;;;;;5032071;28;20499;-65
2023/03/19 03:27:33;;;;;;;5.20;2.95;;;10.40;99.90;;;;;;5031806;28;20053;-65
2023/03/19 03:29:59;;;;;;;3.95;3.03;;;10.40;99.90;;;;;;5032176;28;20111;-65
2023/03/19 03:32:26;;;;;;;4.43;3.25;;;10.50;99.90;;;;;;5032042;28;20053;-65
2023/03/19 03:34:52;;;;;;;4.15;3.75;;;10.50;99.90;;;;;;5032343;28;20438;-65
2023/03/19 03:37:18;;;;;;;4.35;3.20;;;10.50;99.90;;;;;;5031819;28;20041;-66
2023/03/19 03:39:45;;;;;;;4.47;3.47;;;10.40;99.90;;;;;;5031790;28;20049;-65
2023/03/19 03:42:11;;;;;;;4.15;3.42;;;10.50;99.90;;;;;;5031630;28;20045;-66
2023/03/19 03:44:38;;;;;;;5.30;3.95;;;10.40;99.90;;;;;;5031297;28;20082;-65
2023/03/19 03:47:04;;;;;;;5.63;4.18;;;10.40;99.90;;;;;;5031589;28;20055;-65
2023/03/19 03:49:31;;;;;;;5.78;4.60;;;10.50;99.90;;;;;;5031852;28;20466;-65
2023/03/19 03:51:57;;;;;;;7.47;4.30;;;10.40;99.90;;;;;;5031290;28;20111;-65
2023/03/19 03:54:24;;;;;;;5.07;4.10;;;10.40;99.90;;;;;;5031151;28;20470;-65
2023/03/19 03:56:50;;;;;;;5.80;4.10;;;10.30;99.90;;;;;;5031529;28;20172;-65
2023/03/19 03:59:16;;;;;;;4.85;3.78;;;10.40;99.90;;;;;;5031917;28;20107;-65
2023/03/19 04:01:42;;;;;;;5.63;3.70;;;10.30;99.90;;;;;;5030960;28;20053;-66
2023/03/19 04:04:09;;;;;;;5.82;4.50;;;10.30;99.90;;;;;;5031085;28;20057;-65
2023/03/19 04:06:35;;;;;;;4.88;3.97;;;10.30;99.90;;;;;;5030849;28;20072;-65
2023/03/19 04:09:02;;;;;;;5.65;4.10;;;10.20;99.90;;;;;;5031173;28;20107;-65
2023/03/19 04:11:28;;;;;;;4.95;4.32;;;10.30;99.90;;;;;;5030733;28;20420;-65
2023/03/19 04:13:56;;;;;;;5.90;4.28;;;10.20;99.90;;;;;;5030608;28;20068;-65
2023/03/19 04:16:23;;;;;;;5.10;4.18;;;10.20;99.90;;;;;;5030747;28;20053;-65
2023/03/19 04:18:50;;;;;;;6.85;4.45;;;10.10;99.90;;;;;;5030608;28;20056;-64
2023/03/19 04:21:16;;;;;;;5.75;4.18;;;10.10;99.90;;;;;;5014256;28;20056;-65
2023/03/19 04:23:42;;;;;;;6.22;4.20;;;10.00;99.90;;;;;;5030941;28;20061;-66
2023/03/19 04:26:09;;;;;;;6.25;4.22;;;9.90;99.90;;;;;;5030738;28;20520;-65
2023/03/19 04:28:35;;;;;;;6.80;4.40;;;9.90;99.90;;;;;;5030873;28;20057;-65
2023/03/19 04:31:04;;;;;;;5.47;4.32;;;9.90;99.90;;;;;;5013934;28;20048;-66
2023/03/19 04:33:31;;;;;;;6.18;4.25;;;9.90;99.90;;;;;;5031050;28;20111;-65
2023/03/19 04:35:57;;;;;;;6.70;4.57;;;9.90;99.90;;;;;;5031097;28;20064;-66
2023/03/19 04:38:27;;;;;;;5.05;4.20;;;9.90;99.90;;;;;;5030362;28;20092;-66
2023/03/19 04:40:55;;;;;;;5.90;4.25;;;9.90;99.90;;;;;;5030239;28;20037;-66
2023/03/19 04:43:23;;;;;;;5.55;4.35;;;9.80;99.90;;;;;;5030313;28;20375;-65
2023/03/19 04:45:49;;;;;;;5.72;4.03;;;9.90;99.90;;;;;;5030263;28;20057;-66
2023/03/19 04:48:17;;;;;;;4.45;3.65;;;9.80;99.90;;;;;;5030740;28;20057;-65
2023/03/19 04:50:46;;;;;;;5.88;4.85;;;9.70;99.90;;;;;;5030305;28;20462;-66
2023/03/19 04:53:12;;;;;;;4.60;3.67;;;9.70;99.90;;;;;;5030322;28;20065;-65
2023/03/19 04:55:38;;;;;;;4.68;3.97;;;9.60;99.90;;;;;;5030231;28;20060;-65
2023/03/19 04:58:05;;;;;;;4.10;3.70;;;9.50;99.90;;;;;;5033573;28;20049;-65
2023/03/19 05:00:32;;;;;;;4.35;3.63;;;9.60;99.90;;;;;;5033686;28;20037;-65
2023/03/19 05:02:58;;;;;;;4.80;3.95;;;9.50;99.90;;;;;;5033914;28;20080;-65
2023/03/19 05:05:24;;;;;;;4.75;3.92;;;9.40;99.90;;;;;;5033927;28;20244;-65
2023/03/19 05:07:51;;;;;;;5.78;4.22;;;9.30;99.90;;;;;;5017855;28;20045;-65
2023/03/19 05:10:17;;;;;;;4.95;4.20;;;9.30;99.90;;;;;;5017128;28;20084;-65
2023/03/19 05:12:43;;;;;;;4.47;3.83;;;9.30;99.90;;;;;;5033983;28;20107;-65
2023/03/19 05:15:14;;;;;;;6.22;3.90;;;9.20;99.90;;;;;;5033349;28;20060;-65
2023/03/19 05:17:41;;;;;;;5.50;4.25;;;9.20;99.90;;;;;;5033579;28;20480;-65
2023/03/19 05:20:10;;;;;;;5.57;4.35;;;9.20;99.90;;;;;;5034713;28;20056;-65
2023/03/19 05:22:37;;;;;;;5.85;4.53;;;9.30;99.90;;;;;;5033692;28;20057;-66
2023/03/19 05:25:04;;;;;;;5.18;4.68;;;9.30;99.90;;;;;;5034331;28;20371;-65
2023/03/19 05:27:30;;;;;;;5.78;4.10;;;9.20;99.90;;;;;;5034584;28;20084;-66
2023/03/19 05:29:56;;;;;;;6.10;4.40;;;9.10;99.90;;;;;;5034749;28;20067;-65
2023/03/19 05:32:22;;;;;;;5.82;5.20;;;9.20;99.90;;;;;;5034480;28;20393;-65
2023/03/19 05:34:49;;;;;;;6.65;4.78;;;9.00;99.90;;;;;;5034388;28;20049;-65
2023/03/19 05:37:16;;;;;;;6.20;4.85;;;9.20;99.90;;;;;;5033750;28;20058;-65
2023/03/19 05:39:42;;;;;;;6.55;5.53;;;9.10;99.90;;;;;;5034292;28;20381;-65
2023/03/19 05:42:08;;;;;;;5.45;4.32;;;9.00;99.90;;;;;;5033303;28;20053;-66
2023/03/19 05:44:35;;;;;;;5.05;4.32;;;9.10;99.90;;;;;;5032787;28;20353;-64
2023/03/19 05:47:02;;;;;;;6.60;5.38;;;9.10;99.90;;;;;;5034498;28;20079;-66
2023/03/19 05:49:28;;;;;;;5.20;4.70;;;9.00;99.90;;;;;;5033234;28;20370;-65
2023/03/19 05:51:54;;;;;;;5.50;4.82;;;9.00;99.90;;;;;;5034146;28;20650;-65
2023/03/19 05:54:21;;;;;;;6.00;5.07;;;8.90;99.90;;;;;;5033048;28;20439;-66
2023/03/19 05:56:47;;;;;;;7.40;4.88;;;9.00;99.90;;;;;;5034299;28;20049;-66
2023/03/19 05:59:13;;;;;;;6.35;4.68;;;8.90;99.90;;;;;;5034156;28;20061;-66
2023/03/19 06:01:39;;;;;;;6.10;4.75;;;8.90;99.90;;;;;;5032815;28;20069;-66
2023/03/19 06:04:06;;;;;;;6.68;4.95;;;8.80;99.90;;;;;;5032457;28;20049;-66
2023/03/19 06:06:32;;;;;;;5.75;5.15;;;8.90;99.90;;;;;;5033381;28;20049;-65
2023/03/19 06:08:58;;;;;;;6.93;5.43;;;8.90;99.90;;;;;;5033685;28;20061;-65
2023/03/19 06:11:25;;;;;;;7.13;5.45;;;8.90;99.90;;;;;;5032869;28;20107;-66
2023/03/19 06:13:51;;;;;;;8.77;6.05;;;8.90;99.90;;;;;;5032233;28;20057;-66
2023/03/19 06:16:17;;;;;;;7.50;5.85;;;8.90;99.90;;;;;;5016148;28;20054;-66
2023/03/19 06:18:45;;;;;;;7.53;5.68;;;8.90;99.90;;;;;;5032704;28;20049;-65
2023/03/19 06:21:12;;;;;;;6.82;5.43;;;8.80;99.90;;;;;;5032745;28;20045;-66
2023/03/19 06:23:38;;;;;;;8.30;6.47;;;8.90;99.90;;;;;;5032393;28;20052;-66
2023/03/19 06:26:05;;;;;;;9.80;6.07;;;8.80;99.90;;;;;;5032894;28;20049;-66
2023/03/19 06:28:31;;;;;;;7.75;6.15;;;8.90;99.90;;;;;;5032917;28;20119;-66
2023/03/19 06:30:58;;;;;;;8.32;6.45;;;9.00;99.90;;;;;;5032348;28;20045;-66
2023/03/19 06:33:26;;;;;;;7.93;6.15;;;9.30;99.90;;;;;;5033023;28;20049;-66
2023/03/19 06:35:53;;;;;;;9.15;6.78;;;9.80;99.90;;;;;;5016137;28;20488;-66
2023/03/19 06:38:20;;;;;;;8.65;6.80;;;10.10;99.90;;;;;;5032929;28;20045;-67
2023/03/19 06:40:47;;;;;;;8.85;6.50;;;10.70;99.90;;;;;;5032610;28;20461;-66
2023/03/19 06:43:13;;;;;;;7.32;6.38;;;11.10;99.90;;;;;;5032849;28;20466;-66
2023/03/19 06:45:39;;;;;;;7.43;6.03;;;11.30;99.90;;;;;;5032318;28;20055;-66
2023/03/19 06:48:05;;;;;;;7.15;6.30;;;11.70;99.90;;;;;;5032124;28;20056;-65
2023/03/19 06:50:32;;;;;;;8.55;6.25;;;11.80;99.90;;;;;;5031898;28;20064;-65
2023/03/19 06:52:58;;;;;;;7.40;6.70;;;11.70;99.90;;;;;;5031940;28;20414;-66
2023/03/19 06:55:24;;;;;;;7.00;6.30;;;11.60;99.90;;;;;;5015810;28;20156;-66
2023/03/19 06:57:51;;;;;;;6.43;5.68;;;11.40;99.90;;;;;;5032220;28;20046;-66
2023/03/19 07:00:18;;;;;;;7.60;5.95;;;11.20;99.90;;;;;;5031651;28;20103;-66
2023/03/19 07:02:44;;;;;;;7.88;5.80;;;11.00;99.90;;;;;;5031647;28;20045;-66
2023/03/19 07:05:11;;;;;;;7.63;5.93;;;10.90;99.90;;;;;;5031682;28;20053;-66
2023/03/19 07:07:37;;;;;;;7.57;6.78;;;10.80;99.90;;;;;;5032306;28;20057;-66
2023/03/19 07:10:05;;;;;;;9.27;6.55;;;10.70;99.90;;;;;;5015336;28;20060;-66
2023/03/19 07:12:31;;;;;;;9.05;7.10;;;10.80;99.90;;;;;;5032396;28;20045;-66
2023/03/19 07:14:57;;;;;;;8.88;6.32;;;10.80;99.90;;;;;;5030995;28;20049;-66
2023/03/19 07:17:24;;;;;;;8.60;6.43;;;10.90;99.90;;;;;;5031662;28;20041;-66
2023/03/19 07:19:51;;;;;;;8.05;6.80;;;11.00;99.90;;;;;;5031146;28;20100;-66
2023/03/19 07:22:17;;;;;;;11.00;7.03;;;11.00;99.90;;;;;;5031385;28;20072;-66
2023/03/19 07:24:44;;;;;;;8.88;6.70;;;11.10;99.90;;;;;;5037361;28;20454;-66
2023/03/19 07:27:10;;;;;;;10.40;7.38;;;11.20;99.90;;;;;;5040717;28;20045;-66
2023/03/19 07:29:37;;;;;;;9.40;8.13;;;11.30;99.90;;;;;;5041705;28;20600;-65
2023/03/19 07:32:03;;;;;;;7.32;6.30;;;11.40;99.90;;;;;;5037440;28;20048;-65
2023/03/19 07:34:29;;;;;;;9.30;7.45;;;11.50;99.90;;;;;;5039273;28;20064;-66
2023/03/19 07:36:56;;;;;;;9.70;7.47;;;11.50;99.90;;;;;;5028432;28;20384;-66
2023/03/19 07:39:22;;;;;;;8.25;7.13;;;11.40;99.90;;;;;;5039599;28;20045;-65
2023/03/19 07:41:48;;;;;;;10.77;8.05;;;11.40;99.90;;;;;;5046869;28;20476;-66
2023/03/19 07:44:15;;;;;;;10.43;8.48;;;11.40;99.90;;;;;;5042253;28;20057;-67
2023/03/19 07:46:42;;;;;;;9.00;7.40;;;11.30;99.90;;;;;;5041499;28;20091;-66
2023/03/19 07:49:08;;;;;;;9.98;8.93;;;11.20;99.90;;;;;;5040846;28;20669;-66
2023/03/19 07:51:34;;;;;;;12.55;8.15;;;11.30;99.90;;;;;;5023412;28;20110;-66
2023/03/19 07:54:00;;;;;;;10.20;7.90;;;11.30;99.90;;;;;;5041347;28;20480;-66
2023/03/19 07:56:26;;;;;;;9.55;8.35;;;11.30;99.90;;;;;;5040228;28;20397;-66
2023/03/19 07:58:53;;;;;;;10.30;7.57;;;11.30;99.90;;;;;;5039872;28;20052;-66
2023/03/19 08:01:20;;;;;;;11.65;8.45;;;11.30;99.90;;;;;;5040999;28;20048;-68
2023/03/19 08:03:47;;;;;;;10.65;9.02;;;11.20;99.90;;;;;;5040462;28;20078;-66
2023/03/19 08:06:13;;;;;;;11.77;8.50;;;11.20;99.90;;;;;;5039807;28;20045;-66
2023/03/19 08:08:40;;;;;;;12.13;9.63;;;11.10;99.90;;;;;;5041267;28;20052;-66
2023/03/19 08:11:06;;;;;;;12.95;9.98;;;11.10;99.90;;;;;;5013939;28;20164;-66
2023/03/19 08:13:33;;;;;;;14.57;11.20;;;11.00;99.90;;;;;;5035267;28;20053;-67
2023/03/19 08:16:00;;;;;;;12.65;10.57;;;11.00;99.90;;;;;;5039833;28;20061;-67
2023/03/19 08:18:26;;;;;;;10.95;9.60;;;11.00;99.90;;;;;;5040323;28;20107;-66
2023/03/19 08:20:52;;;;;;;12.57;10.05;;;11.10;99.90;;;;;;5038724;28;20049;-66
2023/03/19 08:23:18;;;;;;;12.52;9.30;;;11.00;99.90;;;;;;5039888;28;20050;-65
2023/03/19 08:25:45;;;;;;;12.32;9.35;;;11.10;99.90;;;;;;5038348;28;20513;-65
2023/03/19 08:28:11;;;;;;;13.02;9.55;;;11.10;99.90;;;;;;5031549;28;20053;-66
2023/03/19 08:30:38;;;;;;;15.13;10.65;;;11.20;99.90;;;;;;5031386;28;20493;-67
2023/03/19 08:33:05;;;;;;;14.82;11.18;;;11.20;99.90;;;;;;5034633;28;20057;-66
2023/03/19 08:35:31;;;;;;;14.52;11.93;;;11.30;99.90;;;;;;5035225;28;20087;-66
2023/03/19 08:37:58;;;;;;;15.48;10.93;;;11.20;99.90;;;;;;5035450;28;20041;-65
2023/03/19 08:40:24;;;;;;;14.90;11.65;;;11.20;99.90;;;;;;5035127;28;20065;-65
2023/03/19 08:42:50;;;;;;;16.00;11.88;;;11.10;99.90;;;;;;5034961;28;20063;-67
2023/03/19 08:45:17;;;;;;;16.02;12.48;;;11.10;99.90;;;;;;5035289;28;20454;-65
2023/03/19 08:47:43;;;;;;;16.58;13.75;;;11.10;99.90;;;;;;5034433;28;20357;-65
2023/03/19 08:50:10;;;;;;;15.57;11.57;;;11.00;99.90;;;;;;5038322;28;20111;-66
2023/03/19 08:52:37;;;;;;;14.57;11.48;;;11.00;99.90;;;;;;5044240;28;20053;-65
2023/03/19 08:55:04;;;;;;;14.27;11.57;;;11.00;99.90;;;;;;5042298;28;20049;-66
2023/03/19 08:57:31;;;;;;;17.48;11.93;;;11.00;99.90;;;;;;5042571;28;20041;-66
2023/03/19 08:59:58;;;;;;;17.70;11.45;;;11.00;99.90;;;;;;5044394;28;20425;-65
2023/03/19 09:02:24;;;;;;;17.60;12.30;;;11.00;99.90;;;;;;5044037;28;20079;-65
2023/03/19 09:04:51;;;;;;;15.77;11.43;;;11.10;99.90;;;;;;5044163;28;20045;-66
2023/03/19 09:07:17;;;;;;;15.15;11.25;;;11.20;99.90;;;;;;5044144;28;20496;-66
2023/03/19 09:09:44;;;;;;;16.38;12.02;;;11.20;99.90;;;;;;5044265;28;20049;-65
2023/03/19 09:12:13;;;;;;;15.18;11.80;;;11.20;99.90;;;;;;5044212;28;20044;-65
2023/03/19 09:14:39;;;;;;;15.82;12.13;;;11.20;99.90;;;;;;5043415;28;20045;-66
2023/03/19 09:17:06;;;;;;;15.90;12.40;;;11.20;99.90;;;;;;5043884;28;20053;-65
2023/03/19 09:19:32;;;;;;;15.13;11.65;;;11.30;99.90;;;;;;5045315;28;20041;-65
2023/03/19 09:21:59;;;;;;;17.27;12.40;;;11.20;99.90;;;;;;5042392;28;20120;-65
2023/03/19 09:24:26;;;;;;;15.52;11.95;;;11.20;99.90;;;;;;5043488;28;20057;-66
2023/03/19 09:26:52;;;;;;;15.80;11.55;;;11.20;99.90;;;;;;5042972;28;20465;-66
2023/03/19 09:29:19;;;;;;;15.73;11.52;;;11.20;99.90;;;;;;5051811;28;20049;-66
2023/03/19 09:31:45;;;;;;;13.68;10.90;;;11.20;99.90;;;;;;5041758;28;20321;-65
2023/03/19 09:34:12;;;;;;;15.77;10.82;;;11.10;99.90;;;;;;5033746;28;20080;-66
2023/03/19 09:36:39;;;;;;;17.75;13.15;;;11.10;99.90;;;;;;5034281;28;20428;-65
2023/03/19 09:39:08;;;;;;;19.15;12.80;;;11.10;99.90;;;;;;5033492;28;20104;-65
2023/03/19 09:42:04;;;;;;;18.88;12.50;;;11.10;99.90;;;;;;5032732;28;20076;-66
2023/03/19 09:44:40;;;;;;;16.83;11.35;;;11.00;99.90;;;;;;5039394;28;20168;-66
2023/03/19 09:47:25;;;;;;;16.35;12.73;;;11.00;99.90;;;;;;5042122;28;20056;-66
2023/03/19 09:49:58;;;;;;;15.93;12.02;;;10.90;99.90;;;;;;5043479;28;20596;-65
2023/03/19 09:52:45;;;;;;;14.30;10.57;;;10.90;99.90;;;;;;5038613;28;20045;-66
2023/03/19 09:55:23;;;;;;;15.32;11.45;;;11.00;99.90;;;;;;5042355;28;20045;-66
2023/03/19 09:57:52;;;;;;;15.32;11.73;;;11.00;99.90;;;;;;5042788;28;20061;-65
2023/03/19 10:00:28;;;;;;;15.40;12.25;;;11.10;99.90;;;;;;5040771;28;20087;-65
2023/03/19 10:03:05;;;;;;;17.25;13.02;;;11.10;99.90;;;;;;5042575;28;20041;-66
2023/03/19 10:06:03;;;;;;;14.90;12.27;;;11.20;99.90;;;;;;5044572;28;20041;-65
2023/03/19 10:09:02;;;;;;;17.05;13.07;;;11.20;99.90;;;;;;5026192;28;20384;-66
2023/03/19 10:11:45;;;;;;;15.45;11.50;;;11.20;99.90;;;;;;5035159;28;20053;-65
2023/03/19 10:14:31;;;;;;;15.50;12.30;;;11.20;99.90;;;;;;5031975;28;20053;-66
2023/03/19 10:17:00;;;;;;;14.30;12.48;;;11.30;99.90;;;;;;5033365;28;20408;-65
2023/03/19 10:19:55;;;;;;;16.77;12.63;;;11.20;99.90;;;;;;5032586;28;20057;-65
2023/03/19 10:22:27;;;;;;;15.00;11.65;;;11.20;99.90;;;;;;5032163;28;20053;-65
2023/03/19 10:24:56;;;;;;;14.95;12.27;;;11.20;99.90;;;;;;5032769;28;20343;-64
2023/03/19 10:27:27;;;;;;;17.27;13.43;;;11.10;99.90;;;;;;5032402;28;20413;-65
2023/03/19 10:29:54;;;;;;;16.13;11.73;;;11.10;99.90;;;;;;5033648;28;20045;-66
2023/03/19 10:32:43;;;;;;;14.40;11.18;;;11.10;99.90;;;;;;5033136;28;20060;-66
2023/03/19 10:35:21;;;;;;;15.40;11.23;;;11.30;99.90;;;;;;5033236;28;20049;-65
2023/03/19 10:37:49;;;;;;;13.85;11.43;;;11.40;99.90;;;;;;5033520;28;20426;-65
2023/03/19 10:40:43;;;;;;;17.10;11.63;;;11.50;99.90;;;;;;5033429;28;20057;-66
2023/03/19 10:43:17;;;;;;;17.10;12.70;;;11.60;99.90;;;;;;5040955;28;20289;-64
2023/03/19 10:45:43;;;;;;;17.13;11.20;;;11.50;99.90;;;;;;5036777;28;20057;-65
2023/03/19 10:48:16;;;;;;;18.77;12.15;;;11.60;99.90;;;;;;5033213;28;20049;-65
2023/03/19 10:51:04;;;;;;;15.77;11.25;;;11.70;99.90;;;;;;5032140;28;20057;-65
2023/03/19 10:53:38;;;;;;;15.30;11.90;;;11.70;99.90;;;;;;5032407;28;20049;-65
2023/03/19 10:56:25;;;;;;;18.33;13.55;;;11.70;99.90;;;;;;5032039;28;20061;-65
2023/03/19 10:58:57;;;;;;;15.43;11.38;;;11.70;99.90;;;;;;5032798;28;20390;-66
2023/03/19 11:01:35;;;;;;;14.55;11.25;;;11.80;99.90;;;;;;5034265;28;20052;-64
2023/03/19 11:04:12;;;;;;;15.98;11.57;;;11.90;99.90;;;;;;5034502;28;20064;-65
2023/03/19 11:06:39;;;;;;;14.60;11.73;;;12.00;99.90;;;;;;5013065;28;20111;-65
2023/03/19 11:09:09;;;;;;;14.45;11.48;;;12.00;99.90;;;;;;5012913;28;20061;-66
2023/03/19 11:11:35;;;;;;;14.18;10.48;;;12.10;99.90;;;;;;5038217;28;20045;-65
2023/03/19 11:14:09;;;;;;;15.27;10.82;;;12.20;99.90;;;;;;5050915;28;20447;-66
2023/03/19 11:16:57;;;;;;;13.65;9.75;;;12.40;99.90;;;;;;5037629;28;20465;-65
2023/03/19 11:19:27;;;;;;;13.32;10.18;;;12.40;99.90;;;;;;5032630;28;20046;-65
2023/03/19 11:22:15;;;;;;;14.98;10.73;;;12.70;99.90;;;;;;5032299;28;20045;-65
2023/03/19 11:24:49;;;;;;;12.55;9.65;;;12.80;99.90;;;;;;5032236;28;20049;-65
2023/03/19 11:27:15;;;;;;;15.70;11.35;;;13.10;99.90;;;;;;5031314;28;20068;-65
2023/03/19 11:29:43;;;;;;;14.25;10.18;;;13.20;99.90;;;;;;5032405;28;20497;-65
2023/03/19 11:32:31;;;;;;;15.90;10.95;;;13.40;99.90;;;;;;5032056;28;20049;-65
2023/03/19 11:35:09;;;;;;;12.75;10.27;;;13.60;99.90;;;;;;5032446;28;20054;-65
2023/03/19 11:37:53;;;;;;;17.58;12.05;;;13.40;99.90;;;;;;5032117;28;20038;-65
2023/03/19 11:40:37;;;;;;;18.08;13.23;;;13.50;99.90;;;;;;5036655;28;20716;-65
2023/03/19 11:43:41;;;;;;;17.05;12.45;;;13.40;99.90;;;;;;5041827;28;20056;-65
2023/03/19 11:46:32;;;;;;;17.83;13.98;;;13.20;99.90;;;;;;5038018;28;20053;-64
2023/03/19 11:49:24;;;;;;;19.70;13.75;;;13.10;99.90;;;;;;5040728;28;20042;-65
2023/03/19 11:52:04;;;;;;;18.35;14.30;;;13.20;99.90;;;;;;5037515;28;20119;-65
2023/03/19 11:55:03;;;;;;;19.70;14.05;;;13.10;99.90;;;;;;5038163;28;20052;-65
2023/03/19 11:58:11;;;;;;;19.52;13.98;;;13.30;99.90;;;;;;5038252;28;20424;-64
2023/03/19 12:00:45;;;;;;;;;;;13.30;99.90;;;;;;5040114;28;20111;-65
2023/03/19 12:03:33;;;;;;;17.85;12.60;;;13.10;99.90;;;;;;5039523;28;19929;-65
2023/03/19 12:06:04;;;;;;;20.33;13.75;;;13.20;99.90;;;;;;5036820;28;20457;-65
2023/03/19 12:08:49;;;;;;;18.92;13.10;;;13.30;99.90;;;;;;5032009;28;20053;-65
2023/03/19 12:11:26;;;;;;;17.67;13.00;;;13.10;99.90;;;;;;5031573;28;20111;-65
2023/03/19 12:14:18;;;;;;;19.75;14.13;;;13.10;99.90;;;;;;5031198;28;20057;-65
2023/03/19 12:17:20;;;;;;;19.40;12.80;;;13.10;99.90;;;;;;5030927;28;20049;-65
2023/03/19 12:20:09;;;;;;;19.63;13.27;;;13.10;99.90;;;;;;5031995;28;20061;-64
2023/03/19 12:22:53;;;;;;;20.17;14.02;;;12.90;99.90;;;;;;5030881;28;20045;-65
2023/03/19 12:25:41;;;;;;;19.30;13.60;;;12.90;99.90;;;;;;5033804;28;20049;-64
2023/03/19 12:28:21;;;;;;;20.50;13.88;;;12.90;99.90;;;;;;5030812;28;20045;-64
2023/03/19 12:30:52;;;;;;;21.13;15.85;;;12.80;99.90;;;;;;5030483;28;20453;-64
2023/03/19 12:33:35;;;;;;;22.80;14.02;;;12.90;99.90;;;;;;5014009;28;20045;-64
2023/03/19 12:36:11;;;;;;;20.15;14.65;;;12.90;99.90;;;;;;5033009;28;20466;-64
2023/03/19 12:38:48;;;;;;;19.80;14.95;;;12.90;99.90;;;;;;5039644;28;20427;-64
2023/03/19 12:41:26;;;;;;;20.50;13.93;;;13.00;99.90;;;;;;5031280;28;20049;-64
2023/03/19 12:44:11;;;;;;;;;;;13.10;99.90;;;;;;5031724;28;20049;-65
2023/03/19 12:46:47;;;;;;;16.83;11.43;;;13.10;99.90;;;;;;5030411;28;19925;-64
2023/03/19 12:49:19;;;;;;;18.50;12.52;;;13.30;99.90;;;;;;5031461;28;20441;-65
2023/03/19 12:51:52;;;;;;;19.58;13.20;;;13.40;99.90;;;;;;5031228;28;20386;-64
2023/03/19 12:54:24;;;;;;;16.17;10.80;;;13.50;99.90;;;;;;5031003;28;20054;-65
2023/03/19 12:57:15;;;;;;;21.80;15.23;;;13.60;99.90;;;;;;5031617;28;20409;-64